Time;durP1;ratioP1;P1;durP2;ratioP2;P2;SDS_P1;SDS_P2;PMS_P1;PMS_P2;Temp;Humidity;BMP_temperature;BMP_pressure;BME280_temperature;BME280_humidity;BME280_pressure;Samples;Min_cycle;Max_cycle;Signal;HPM_P1;HPM_P2
2021/05/21 00:02:21;;;;;;;10.43;9.18;;;13.70;99.90;;;;;;6160336;23;20100;-88
2021/05/21 00:04:47;;;;;;;10.75;9.65;;;13.70;99.90;;;;;;6160174;23;20100;-88
2021/05/21 00:07:12;;;;;;;10.85;9.50;;;13.70;99.90;;;;;;6186692;23;20001;-88
2021/05/21 00:09:38;;;;;;;10.30;9.20;;;13.70;99.90;;;;;;6186522;23;19997;-88
2021/05/21 00:12:04;;;;;;;10.13;9.02;;;13.70;99.90;;;;;;6160104;23;20032;-88
2021/05/21 00:14:30;;;;;;;12.70;9.85;;;13.70;99.90;;;;;;6159938;23;20439;-88
2021/05/21 00:16:56;;;;;;;12.05;9.45;;;13.70;99.90;;;;;;6160090;23;20529;-88
2021/05/21 00:19:21;;;;;;;11.50;9.38;;;13.70;99.90;;;;;;6160357;23;20013;-88
2021/05/21 00:21:47;;;;;;;10.75;9.45;;;13.70;99.90;;;;;;6160046;23;20058;-87
2021/05/21 00:24:13;;;;;;;11.80;10.57;;;13.60;99.90;;;;;;6160262;23;20485;-87
2021/05/21 00:26:39;;;;;;;13.50;10.70;;;13.60;99.90;;;;;;6159996;23;20005;-87
2021/05/21 00:29:06;;;;;;;10.27;9.27;;;13.60;99.90;;;;;;6160288;23;20056;-87
2021/05/21 00:31:32;;;;;;;12.68;11.23;;;13.50;99.90;;;;;;6160075;23;20005;-87
2021/05/21 00:33:58;;;;;;;10.52;9.40;;;13.50;99.90;;;;;;6159725;23;20087;-87
2021/05/21 00:36:24;;;;;;;11.68;10.48;;;13.50;99.90;;;;;;6160143;23;20005;-87
2021/05/21 00:38:49;;;;;;;11.35;9.98;;;13.50;99.90;;;;;;6186731;23;20087;-87
2021/05/21 00:41:15;;;;;;;9.75;8.70;;;13.40;99.90;;;;;;6159994;23;20009;-87
2021/05/21 00:43:41;;;;;;;11.60;10.40;;;13.30;99.90;;;;;;6186685;23;20096;-87
2021/05/21 00:46:06;;;;;;;11.55;10.05;;;13.40;99.90;;;;;;6160657;23;20006;-87
2021/05/21 00:48:32;;;;;;;16.10;11.13;;;13.30;99.90;;;;;;6160177;23;20040;-87
2021/05/21 00:50:58;;;;;;;11.90;10.35;;;13.30;99.90;;;;;;6161383;23;20009;-87
2021/05/21 00:53:29;;;;;;;12.80;11.30;;;13.20;99.90;;;;;;6160107;23;20066;-88
2021/05/21 00:55:58;;;;;;;14.15;12.52;;;13.20;99.90;;;;;;6160126;23;20064;-88
2021/05/21 00:58:24;;;;;;;13.25;11.75;;;13.20;99.90;;;;;;6186084;23;20493;-87
2021/05/21 01:00:55;;;;;;;15.20;13.27;;;13.10;99.90;;;;;;6159733;23;20458;-87
2021/05/21 01:03:21;;;;;;;15.05;12.55;;;13.00;99.90;;;;;;6159889;23;20036;-87
2021/05/21 01:05:47;;;;;;;13.57;11.73;;;13.00;99.90;;;;;;6159543;23;20006;-87
2021/05/21 01:08:15;;;;;;;20.02;15.63;;;12.90;99.90;;;;;;6159742;23;20012;-87
2021/05/21 01:10:41;;;;;;;17.25;14.95;;;12.80;99.90;;;;;;6159653;23;20036;-87
2021/05/21 01:13:06;;;;;;;19.48;16.70;;;12.70;99.90;;;;;;6159829;23;20331;-87
2021/05/21 01:15:41;;;;;;;20.60;16.45;;;12.70;99.90;;;;;;6159444;23;20016;-87
2021/05/21 01:18:09;;;;;;;18.17;15.27;;;12.60;99.90;;;;;;6159702;23;20013;-87
2021/05/21 01:20:36;;;;;;;21.73;17.20;;;12.50;99.90;;;;;;6185930;23;19997;-87
2021/05/21 01:23:04;;;;;;;19.65;15.48;;;12.50;99.90;;;;;;6159585;23;20008;-87
2021/05/21 01:25:31;;;;;;;27.15;21.80;;;12.50;99.90;;;;;;6159525;23;20012;-87
2021/05/21 01:27:58;;;;;;;18.33;16.02;;;12.40;99.90;;;;;;6186112;23;20009;-88
2021/05/21 01:30:25;;;;;;;21.63;17.00;;;12.40;99.90;;;;;;6159385;23;20087;-87
2021/05/21 01:32:51;;;;;;;19.65;16.83;;;12.40;99.90;;;;;;6159444;23;20063;-87
2021/05/21 01:35:18;;;;;;;20.50;15.50;;;12.40;99.90;;;;;;6159336;23;20070;-87
2021/05/21 01:37:46;;;;;;;14.20;12.70;;;12.30;99.90;;;;;;6159648;23;20084;-87
2021/05/21 01:40:13;;;;;;;15.98;13.65;;;12.30;99.90;;;;;;6159383;23;20005;-87
2021/05/21 01:42:39;;;;;;;17.98;12.05;;;12.30;99.90;;;;;;6159483;23;20036;-87
2021/05/21 01:45:07;;;;;;;14.30;12.18;;;12.30;99.90;;;;;;6159458;23;20011;-87
2021/05/21 01:47:33;;;;;;;12.70;11.40;;;12.30;99.90;;;;;;6159503;23;20013;-87
2021/05/21 01:50:01;;;;;;;12.07;10.73;;;12.20;99.90;;;;;;6159313;23;20009;-87
2021/05/21 01:52:26;;;;;;;13.55;10.98;;;12.20;99.90;;;;;;6161179;23;20024;-88
2021/05/21 01:54:52;;;;;;;11.65;10.45;;;12.20;99.90;;;;;;6159354;23;20017;-87
2021/05/21 01:57:18;;;;;;;13.38;9.73;;;12.10;99.90;;;;;;6159515;23;20080;-88
2021/05/21 01:59:44;;;;;;;10.43;9.32;;;12.10;99.90;;;;;;6159292;23;20013;-88
2021/05/21 02:02:09;;;;;;;10.30;8.90;;;12.10;99.90;;;;;;6159446;23;20005;-87
2021/05/21 02:04:37;;;;;;;11.05;8.27;;;12.00;99.90;;;;;;6159360;23;20009;-88
2021/05/21 02:07:05;;;;;;;14.10;8.20;;;12.00;99.90;;;;;;6159331;23;20033;-88
2021/05/21 02:09:57;;;;;;;11.35;8.70;;;12.00;99.90;;;;;;6159152;23;20001;-88
2021/05/21 02:12:24;;;;;;;8.23;7.22;;;12.00;99.90;;;;;;6146463;23;20016;-88
2021/05/21 02:14:51;;;;;;;9.30;7.65;;;11.90;99.90;;;;;;6159151;23;20017;-87
2021/05/21 02:17:17;;;;;;;10.25;8.15;;;11.90;99.90;;;;;;6157748;23;20052;-87
2021/05/21 02:19:43;;;;;;;7.93;7.13;;;11.90;99.90;;;;;;6157693;23;20013;-87
2021/05/21 02:22:09;;;;;;;12.05;7.25;;;11.90;99.90;;;;;;6159237;23;20374;-88
2021/05/21 02:24:36;;;;;;;8.32;7.28;;;11.80;99.90;;;;;;6159314;23;20009;-88
2021/05/21 02:27:01;;;;;;;8.50;6.53;;;11.80;99.90;;;;;;6159323;23;20071;-88
2021/05/21 02:29:27;;;;;;;6.43;5.82;;;11.80;99.90;;;;;;6159833;23;20060;-88
2021/05/21 02:31:53;;;;;;;6.32;5.78;;;11.80;99.90;;;;;;6159312;23;19997;-88
2021/05/21 02:34:19;;;;;;;6.18;5.57;;;11.70;99.90;;;;;;6185253;23;20051;-88
2021/05/21 02:36:45;;;;;;;6.30;5.70;;;11.80;99.90;;;;;;6159203;23;20052;-87
2021/05/21 02:39:10;;;;;;;5.78;5.18;;;11.80;99.90;;;;;;6159661;23;20009;-88
2021/05/21 02:41:36;;;;;;;6.15;5.45;;;11.80;99.90;;;;;;6159442;23;20009;-88
2021/05/21 02:44:02;;;;;;;5.78;4.80;;;11.90;99.90;;;;;;6160128;23;20124;-88
2021/05/21 02:46:28;;;;;;;6.30;4.82;;;11.90;99.90;;;;;;6161302;23;20012;-88
2021/05/21 02:48:54;;;;;;;5.43;4.88;;;12.00;99.90;;;;;;6161112;23;20045;-88
2021/05/21 02:51:19;;;;;;;7.63;4.55;;;12.00;99.90;;;;;;6188946;23;20326;-87
2021/05/21 02:53:45;;;;;;;5.80;4.47;;;12.10;99.90;;;;;;6161043;23;20044;-88
2021/05/21 02:56:11;;;;;;;5.78;4.57;;;12.10;99.90;;;;;;6161002;23;20012;-88
2021/05/21 02:58:36;;;;;;;4.93;4.53;;;12.20;99.90;;;;;;6161070;23;20017;-87
2021/05/21 03:01:03;;;;;;;6.18;4.55;;;12.40;99.90;;;;;;6160879;23;20005;-87
2021/05/21 03:03:28;;;;;;;6.28;4.43;;;12.40;99.90;;;;;;6161303;23;20457;-88
2021/05/21 03:05:57;;;;;;;5.28;4.78;;;12.50;99.90;;;;;;6160880;23;20064;-88
2021/05/21 03:08:23;;;;;;;5.38;4.88;;;12.70;99.90;;;;;;6161001;23;20060;-87
2021/05/21 03:10:49;;;;;;;5.63;4.50;;;12.80;99.90;;;;;;6160720;23;20009;-88
2021/05/21 03:13:15;;;;;;;6.28;5.32;;;12.90;99.90;;;;;;6161048;23;20017;-87
2021/05/21 03:15:44;;;;;;;6.60;4.70;;;13.10;99.90;;;;;;6160620;23;20355;-88
2021/05/21 03:18:18;;;;;;;4.97;4.57;;;13.30;99.90;;;;;;6160920;23;20020;-88
2021/05/21 03:20:44;;;;;;;5.53;5.03;;;13.40;99.90;;;;;;6160941;23;20047;-87
2021/05/21 03:23:10;;;;;;;5.30;4.80;;;13.50;99.90;;;;;;6160896;23;20055;-87
2021/05/21 03:25:37;;;;;;;8.27;4.78;;;13.60;99.90;;;;;;6160541;23;20009;-87
2021/05/21 03:28:03;;;;;;;4.82;4.43;;;13.80;99.90;;;;;;6160838;23;20009;-87
2021/05/21 03:30:29;;;;;;;7.50;4.68;;;13.90;99.90;;;;;;6161006;23;20036;-87
2021/05/21 03:32:55;;;;;;;5.88;4.85;;;14.00;99.90;;;;;;6160639;23;20005;-87
2021/05/21 03:35:20;;;;;;;5.40;4.88;;;14.00;99.90;;;;;;6161216;23;20439;-87
2021/05/21 03:37:46;;;;;;;9.07;5.53;;;14.10;99.90;;;;;;6160967;23;20383;-87
2021/05/21 03:40:12;;;;;;;8.80;5.65;;;14.20;99.90;;;;;;6161602;23;20005;-87
2021/05/21 03:42:38;;;;;;;6.05;5.13;;;14.20;99.90;;;;;;6162829;23;20335;-87
2021/05/21 03:45:06;;;;;;;6.30;5.70;;;14.20;99.90;;;;;;6161117;23;20044;-88
2021/05/21 03:47:33;;;;;;;10.77;5.82;;;14.30;99.90;;;;;;6187206;23;20428;-87
2021/05/21 03:49:59;;;;;;;5.50;4.93;;;14.30;99.90;;;;;;6161003;23;20079;-87
2021/05/21 03:52:25;;;;;;;9.63;6.97;;;14.40;99.90;;;;;;6162103;23;20013;-88
2021/05/21 03:54:51;;;;;;;5.97;5.20;;;14.50;99.90;;;;;;6158347;23;20017;-88
2021/05/21 03:57:17;;;;;;;5.43;4.80;;;14.60;99.90;;;;;;6158705;23;20423;-87
2021/05/21 03:59:43;;;;;;;5.07;4.22;;;14.70;99.90;;;;;;6158643;23;20381;-87
2021/05/21 04:02:11;;;;;;;6.07;3.55;;;14.80;99.90;;;;;;6159476;23;20005;-87
2021/05/21 04:04:37;;;;;;;4.60;4.00;;;14.90;99.90;;;;;;6159966;23;20005;-88
2021/05/21 04:07:02;;;;;;;4.10;3.33;;;15.00;99.90;;;;;;6159565;23;20005;-87
2021/05/21 04:09:30;;;;;;;3.25;2.95;;;15.10;99.90;;;;;;6160320;23;20009;-87
2021/05/21 04:11:56;;;;;;;3.80;3.28;;;15.10;99.90;;;;;;6186671;23;20007;-87
2021/05/21 04:14:22;;;;;;;3.28;2.95;;;15.10;99.90;;;;;;6187796;23;20021;-87
2021/05/21 04:16:48;;;;;;;4.05;3.60;;;15.10;99.90;;;;;;6160561;23;20518;-87
2021/05/21 04:19:14;;;;;;;5.68;2.97;;;15.20;99.90;;;;;;6160578;23;20009;-87
2021/05/21 04:21:40;;;;;;;4.57;3.17;;;15.30;99.90;;;;;;6161607;23;20001;-86
2021/05/21 04:24:06;;;;;;;3.10;2.83;;;15.30;99.90;;;;;;6164866;23;20006;-86
2021/05/21 04:26:32;;;;;;;5.05;2.90;;;15.50;99.90;;;;;;6166575;23;20431;-86
2021/05/21 04:28:58;;;;;;;2.70;2.50;;;15.60;99.90;;;;;;6165852;23;20013;-86
2021/05/21 04:31:24;;;;;;;4.38;2.70;;;15.50;99.90;;;;;;6160108;23;20008;-86
2021/05/21 04:33:50;;;;;;;3.35;2.55;;;15.60;99.90;;;;;;6160095;23;20016;-86
2021/05/21 04:36:17;;;;;;;3.10;2.42;;;15.70;99.90;;;;;;6160069;23;20013;-86
2021/05/21 04:38:43;;;;;;;2.78;2.58;;;15.80;99.90;;;;;;6186139;23;20005;-86
2021/05/21 04:41:09;;;;;;;2.30;2.13;;;15.80;99.90;;;;;;6186237;23;20012;-87
2021/05/21 04:43:34;;;;;;;2.30;2.20;;;15.90;99.90;;;;;;6160065;23;20028;-86
2021/05/21 04:46:01;;;;;;;2.50;2.30;;;16.10;99.90;;;;;;6159964;23;20005;-87
2021/05/21 04:48:28;;;;;;;3.17;2.33;;;16.30;99.90;;;;;;6161006;23;20013;-86
2021/05/21 04:50:56;;;;;;;1.88;1.77;;;16.40;99.90;;;;;;6159883;23;20002;-86
2021/05/21 04:53:22;;;;;;;2.22;2.13;;;16.40;99.90;;;;;;6162382;23;20040;-87
2021/05/21 04:55:47;;;;;;;2.90;2.17;;;16.60;99.90;;;;;;6159166;23;20009;-86
2021/05/21 04:58:13;;;;;;;2.25;2.08;;;16.70;99.90;;;;;;6186161;23;20005;-87
2021/05/21 05:00:39;;;;;;;2.03;1.92;;;16.80;99.90;;;;;;6160103;23;20001;-87
2021/05/21 05:03:17;;;;;;;2.95;1.95;;;16.90;99.90;;;;;;6160077;23;20531;-87
2021/05/21 05:05:46;;;;;;;2.20;2.00;;;16.90;99.90;;;;;;6159178;23;20443;-87
2021/05/21 05:08:15;;;;;;;4.18;2.10;;;17.00;99.90;;;;;;6158462;23;20013;-87
2021/05/21 05:10:42;;;;;;;2.42;2.17;;;17.20;99.90;;;;;;6159801;23;20338;-87
2021/05/21 05:13:08;;;;;;;6.90;2.60;;;17.50;99.90;;;;;;6160044;23;20021;-87
2021/05/21 05:15:35;;;;;;;2.55;2.20;;;18.10;99.90;;;;;;6159669;23;20013;-88
2021/05/21 05:18:02;;;;;;;2.50;2.22;;;18.70;99.90;;;;;;6160087;23;20067;-87
2021/05/21 05:20:28;;;;;;;2.90;2.60;;;19.30;99.90;;;;;;6159954;23;20005;-87
2021/05/21 05:22:54;;;;;;;2.55;2.25;;;20.00;99.90;;;;;;6159923;23;20019;-88
2021/05/21 05:25:21;;;;;;;4.68;2.00;;;20.20;99.90;;;;;;6159762;23;20005;-88
2021/05/21 05:27:47;;;;;;;2.05;1.75;;;20.40;99.90;;;;;;6156798;23;20312;-87
2021/05/21 05:30:14;;;;;;;2.85;1.80;;;20.70;99.90;;;;;;6158974;23;20014;-88
2021/05/21 05:32:39;;;;;;;1.73;1.63;;;21.20;99.90;;;;;;6159926;23;20013;-87
2021/05/21 05:35:06;;;;;;;2.30;1.50;;;21.40;99.90;;;;;;6161143;23;20052;-88
2021/05/21 05:37:32;;;;;;;2.67;1.33;;;21.80;99.90;;;;;;6157270;23;20005;-88
2021/05/21 05:39:58;;;;;;;1.55;1.30;;;22.10;99.90;;;;;;6182640;23;20021;-88
2021/05/21 05:42:24;;;;;;;6.95;1.80;;;22.60;99.90;;;;;;6155963;23;20017;-88
2021/05/21 05:44:50;;;;;;;1.20;1.13;;;23.10;99.90;;;;;;6153699;23;20017;-87
2021/05/21 05:47:16;;;;;;;1.50;1.40;;;23.40;99.90;;;;;;6158041;23;20013;-88
2021/05/21 05:49:42;;;;;;;1.40;1.35;;;23.90;99.90;;;;;;6157749;23;20005;-87
2021/05/21 05:52:09;;;;;;;1.42;1.33;;;24.10;99.90;;;;;;6155933;23;20029;-86
2021/05/21 05:54:35;;;;;;;1.10;0.90;;;24.30;99.90;;;;;;6185669;23;20044;-86
2021/05/21 05:57:00;;;;;;;1.75;0.85;;;24.40;99.90;;;;;;6158196;23;20009;-86
2021/05/21 05:59:27;;;;;;;2.55;1.25;;;24.70;99.90;;;;;;6156213;23;20008;-86
2021/05/21 06:01:53;;;;;;;1.20;1.10;;;25.10;99.90;;;;;;6156675;23;20017;-88
2021/05/21 06:04:19;;;;;;;1.17;1.10;;;25.50;99.90;;;;;;6156043;23;20067;-87
2021/05/21 06:06:47;;;;;;;1.08;0.98;;;25.90;99.90;;;;;;6157028;23;20013;-88
2021/05/21 06:09:13;;;;;;;1.80;1.00;;;26.30;99.90;;;;;;6183355;23;19997;-89
2021/05/21 06:11:38;;;;;;;1.85;1.08;;;26.50;99.90;;;;;;6155129;23;20245;-87
2021/05/21 06:14:04;;;;;;;2.65;1.10;;;26.40;99.90;;;;;;6156491;23;20328;-87
2021/05/21 06:16:30;;;;;;;1.58;0.93;;;26.40;99.90;;;;;;6182752;23;20005;-88
2021/05/21 06:18:56;;;;;;;1.17;0.98;;;26.60;99.90;;;;;;6157502;23;20005;-88
2021/05/21 06:21:22;;;;;;;1.08;1.02;;;26.70;99.90;;;;;;6158829;23;20013;-88
2021/05/21 06:23:47;;;;;;;1.00;0.90;;;26.80;99.90;;;;;;6186202;23;20453;-88
2021/05/21 06:28:51;;;;;;;2.55;1.00;;;27.10;99.90;;;;;;6208540;23;20040;-89
2021/05/21 06:31:17;;;;;;;2.65;1.30;;;27.10;98.40;;;;;;6180143;23;20095;-88
2021/05/21 06:33:43;;;;;;;1.58;1.10;;;26.80;94.70;;;;;;6172366;23;20028;-88
2021/05/21 06:36:10;;;;;;;2.42;0.90;;;26.30;92.30;;;;;;6159856;23;20012;-88
2021/05/21 06:38:37;;;;;;;3.63;1.00;;;25.90;95.90;;;;;;6185990;23;20004;-87
2021/05/21 06:41:03;;;;;;;1.00;0.90;;;25.70;96.00;;;;;;6159978;23;20001;-88
2021/05/21 06:43:30;;;;;;;1.30;1.20;;;25.70;97.20;;;;;;6162804;23;20075;-87
2021/05/21 06:45:56;;;;;;;0.90;0.90;;;26.20;95.70;;;;;;6182633;23;20012;-87
2021/05/21 06:48:26;;;;;;;1.02;0.90;;;26.70;96.00;;;;;;6199672;23;20347;-87
2021/05/21 06:50:53;;;;;;;1.23;1.08;;;27.30;95.60;;;;;;6182883;23;20126;-87
2021/05/21 06:53:20;;;;;;;2.28;0.85;;;27.90;92.90;;;;;;6190095;23;20065;-87
2021/05/21 06:55:46;;;;;;;1.00;0.93;;;28.40;95.10;;;;;;6160402;23;20020;-87
2021/05/21 06:58:12;;;;;;;0.90;0.90;;;28.80;91.00;;;;;;6162426;23;20013;-87
2021/05/21 07:00:41;;;;;;;1.58;1.10;;;29.20;91.10;;;;;;6160846;23;20027;-88
2021/05/21 07:03:07;;;;;;;1.80;0.82;;;29.50;83.00;;;;;;6187578;23;20005;-88
2021/05/21 07:05:33;;;;;;;1.75;0.93;;;29.70;83.20;;;;;;6160947;23;20005;-89
2021/05/21 07:08:03;;;;;;;0.80;0.80;;;29.90;84.30;;;;;;6161367;23;20099;-89
2021/05/21 07:10:29;;;;;;;2.90;1.00;;;30.10;73.10;;;;;;6177941;23;20005;-87
2021/05/21 07:12:54;;;;;;;1.13;0.85;;;30.00;74.70;;;;;;6187701;23;20016;-87
2021/05/21 07:15:22;;;;;;;1.58;0.68;;;30.00;75.70;;;;;;6187948;23;20021;-88
2021/05/21 07:17:54;;;;;;;2.97;0.80;;;30.20;78.30;;;;;;6163533;23;20391;-89
2021/05/21 07:20:20;;;;;;;0.70;0.70;;;30.30;73.40;;;;;;6160674;23;20001;-87
2021/05/21 07:22:45;;;;;;;3.08;0.80;;;30.00;69.70;;;;;;6161074;23;20023;-87
2021/05/21 07:25:11;;;;;;;3.22;0.90;;;30.00;69.40;;;;;;6187553;23;20001;-87
2021/05/21 07:27:37;;;;;;;1.17;0.80;;;29.90;67.70;;;;;;6161344;23;20017;-87
2021/05/21 07:30:04;;;;;;;3.05;0.98;;;29.80;68.20;;;;;;6159989;23;20001;-89
2021/05/21 07:32:29;;;;;;;3.25;0.82;;;29.80;70.50;;;;;;6187529;23;20017;-90
2021/05/21 07:34:55;;;;;;;3.50;1.10;;;29.90;70.30;;;;;;6159414;23;20022;-86
2021/05/21 07:37:21;;;;;;;2.40;0.88;;;29.80;67.40;;;;;;6160385;23;20016;-89
2021/05/21 07:39:46;;;;;;;1.20;0.88;;;29.60;65.10;;;;;;6159037;23;20005;-87
2021/05/21 07:42:12;;;;;;;0.70;0.70;;;29.30;62.10;;;;;;6185373;23;20499;-87
2021/05/21 07:44:38;;;;;;;0.80;0.80;;;29.30;65.40;;;;;;6185966;23;20064;-87
2021/05/21 07:47:03;;;;;;;0.73;0.70;;;29.60;65.70;;;;;;6158596;23;20155;-88
2021/05/21 07:49:29;;;;;;;0.50;0.50;;;30.10;66.70;;;;;;6159126;23;20477;-87
2021/05/21 07:51:55;;;;;;;1.67;0.60;;;30.40;65.10;;;;;;6162405;23;20048;-87
2021/05/21 07:54:21;;;;;;;2.33;0.95;;;30.80;64.70;;;;;;6158496;23;20017;-87
2021/05/21 07:56:47;;;;;;;0.45;0.45;;;31.20;64.00;;;;;;6186294;23;20075;-88
2021/05/21 07:59:13;;;;;;;0.82;0.50;;;31.30;62.00;;;;;;6191119;23;20016;-87
2021/05/21 08:01:40;;;;;;;1.05;0.55;;;31.50;60.20;;;;;;6209275;23;20407;-86
2021/05/21 08:04:06;;;;;;;1.67;0.40;;;31.70;57.70;;;;;;6210882;23;20001;-87
2021/05/21 08:06:33;;;;;;;0.20;0.20;;;31.80;56.00;;;;;;6183306;23;20063;-85
2021/05/21 08:09:01;;;;;;;0.40;0.40;;;31.60;54.30;;;;;;6163445;23;20039;-87
2021/05/21 08:11:26;;;;;;;0.57;0.38;;;31.20;53.60;;;;;;6159627;23;20044;-88
2021/05/21 08:13:52;;;;;;;0.40;0.40;;;30.60;53.90;;;;;;6160125;23;20450;-88
2021/05/21 08:16:18;;;;;;;1.48;0.40;;;30.30;53.60;;;;;;6160309;23;20005;-87
2021/05/21 08:18:43;;;;;;;0.55;0.40;;;30.20;53.30;;;;;;6159508;23;20001;-88
2021/05/21 08:21:09;;;;;;;0.52;0.40;;;30.50;52.00;;;;;;6159416;23;20016;-87
2021/05/21 08:23:37;;;;;;;0.60;0.50;;;30.80;53.40;;;;;;6158295;23;20494;-86
2021/05/21 08:26:06;;;;;;;0.30;0.30;;;31.40;52.70;;;;;;6159601;23;20092;-87
2021/05/21 08:28:31;;;;;;;0.57;0.50;;;32.10;53.60;;;;;;6159083;23;20005;-87
2021/05/21 08:30:57;;;;;;;1.90;0.40;;;32.80;52.80;;;;;;6159401;23;20534;-87
2021/05/21 08:33:23;;;;;;;1.38;0.50;;;33.30;50.00;;;;;;6159942;23;20084;-87
2021/05/21 08:35:48;;;;;;;0.35;0.30;;;33.00;48.60;;;;;;6159652;23;20060;-88
2021/05/21 08:38:15;;;;;;;0.40;0.40;;;32.60;47.70;;;;;;6198245;23;19981;-87
2021/05/21 08:40:40;;;;;;;0.57;0.30;;;32.20;48.00;;;;;;6187108;23;20001;-86
2021/05/21 08:43:08;;;;;;;0.60;0.40;;;31.80;47.50;;;;;;6187295;23;20048;-88
2021/05/21 08:45:34;;;;;;;0.30;0.30;;;31.60;46.40;;;;;;6167784;23;20013;-86
2021/05/21 08:48:01;;;;;;;0.63;0.30;;;31.60;46.50;;;;;;6185630;23;20009;-87
2021/05/21 08:50:32;;;;;;;0.38;0.38;;;32.10;46.10;;;;;;6159149;23;20009;-87
2021/05/21 08:52:58;;;;;;;1.13;0.47;;;32.40;44.30;;;;;;6186604;23;20009;-89
2021/05/21 08:55:24;;;;;;;0.65;0.47;;;32.40;43.20;;;;;;6159013;23;20013;-86
2021/05/21 08:57:50;;;;;;;0.20;0.20;;;32.30;43.30;;;;;;6188214;23;20017;-88
2021/05/21 09:00:16;;;;;;;0.30;0.30;;;32.50;43.30;;;;;;6162604;23;20367;-86
2021/05/21 09:02:42;;;;;;;0.70;0.50;;;32.60;41.60;;;;;;6187858;23;20311;-87
2021/05/21 09:05:10;;;;;;;0.63;0.38;;;32.70;41.90;;;;;;6158901;23;20001;-87
2021/05/21 09:07:38;;;;;;;0.75;0.43;;;33.10;41.90;;;;;;6158863;23;20059;-87
2021/05/21 09:10:13;;;;;;;0.43;0.30;;;33.50;40.00;;;;;;6159786;23;20001;-89
2021/05/21 09:12:45;;;;;;;1.10;0.40;;;33.60;39.30;;;;;;6159407;23;20060;-88
2021/05/21 09:15:19;;;;;;;0.97;0.40;;;33.90;40.50;;;;;;6180347;23;20005;-87
2021/05/21 09:17:56;;;;;;;1.65;0.40;;;34.40;39.40;;;;;;6212477;23;19993;-87
2021/05/21 09:20:31;;;;;;;0.50;0.30;;;35.00;39.80;;;;;;6184410;23;20012;-87
2021/05/21 09:23:11;;;;;;;0.40;0.40;;;35.60;39.40;;;;;;6158910;23;20039;-87
2021/05/21 09:25:49;;;;;;;3.22;0.40;;;36.10;39.10;;;;;;6186452;23;20009;-87
2021/05/21 09:28:36;;;;;;;0.80;0.38;;;36.40;38.10;;;;;;6160186;23;20009;-88
2021/05/21 09:31:22;;;;;;;0.90;0.47;;;36.70;38.30;;;;;;6158238;23;20305;-88
2021/05/21 09:33:51;;;;;;;0.60;0.50;;;36.70;36.50;;;;;;6157534;23;20054;-88
2021/05/21 09:36:32;;;;;;;2.83;0.73;;;36.70;37.90;;;;;;6157351;23;20021;-87
2021/05/21 09:38:58;;;;;;;0.50;0.50;;;36.70;37.20;;;;;;6158975;23;20006;-88
2021/05/21 09:41:26;;;;;;;0.50;0.50;;;36.50;37.40;;;;;;6158793;23;20009;-88
2021/05/21 09:43:52;;;;;;;0.40;0.40;;;36.30;37.30;;;;;;6187326;23;19997;-87
2021/05/21 09:46:18;;;;;;;0.68;0.57;;;36.10;37.10;;;;;;6194933;23;20008;-88
2021/05/21 09:48:44;;;;;;;0.52;0.47;;;35.50;36.60;;;;;;6172300;23;20001;-87
2021/05/21 09:51:13;;;;;;;2.63;0.68;;;34.60;36.60;;;;;;6159526;23;20001;-88
2021/05/21 09:53:39;;;;;;;0.70;0.50;;;33.70;36.90;;;;;;6162606;23;20494;-88
2021/05/21 09:56:06;;;;;;;0.40;0.40;;;32.70;37.50;;;;;;6162023;23;20013;-87
2021/05/21 09:58:33;;;;;;;0.35;0.30;;;31.80;38.00;;;;;;6162671;23;20437;-88
2021/05/21 10:01:16;;;;;;;1.08;0.30;;;31.00;38.50;;;;;;6163390;23;20001;-87
2021/05/21 10:03:44;;;;;;;0.32;0.32;;;30.50;39.70;;;;;;6163774;23;20015;-88
2021/05/21 10:06:10;;;;;;;0.50;0.50;;;30.00;38.90;;;;;;6164370;23;20495;-88
2021/05/21 10:08:40;;;;;;;0.52;0.40;;;29.80;39.40;;;;;;6161803;23;20051;-89
2021/05/21 10:11:06;;;;;;;0.55;0.55;;;29.80;39.70;;;;;;6188029;23;20001;-86
2021/05/21 10:13:33;;;;;;;0.38;0.38;;;30.10;40.60;;;;;;6161860;23;20466;-87
2021/05/21 10:15:59;;;;;;;0.50;0.50;;;30.90;40.00;;;;;;6165211;23;20005;-87
2021/05/21 10:18:29;;;;;;;0.40;0.40;;;31.90;39.60;;;;;;6187554;23;20017;-87
2021/05/21 10:20:57;;;;;;;0.50;0.50;;;32.90;39.30;;;;;;6188079;23;20008;-88
2021/05/21 10:23:31;;;;;;;2.42;0.32;;;33.90;39.00;;;;;;6176555;23;20016;-88
2021/05/21 10:26:02;;;;;;;0.47;0.40;;;34.60;38.10;;;;;;6160266;23;20016;-88
2021/05/21 10:28:30;;;;;;;0.35;0.35;;;34.90;37.60;;;;;;6162555;23;20068;-88
2021/05/21 10:30:59;;;;;;;0.25;0.25;;;35.20;37.20;;;;;;6187549;23;20001;-87
2021/05/21 10:33:35;;;;;;;1.98;0.43;;;35.80;37.10;;;;;;6187255;23;20001;-89
2021/05/21 10:36:17;;;;;;;1.30;0.32;;;36.40;36.10;;;;;;6162413;23;20027;-87
2021/05/21 10:39:22;;;;;;;0.75;0.40;;;37.10;34.20;;;;;;6161205;23;20009;-88
2021/05/21 10:41:55;;;;;;;1.00;0.30;;;37.10;35.30;;;;;;6044228;23;20014;-86
2021/05/21 10:44:21;;;;;;;;;;;37.10;35.40;;;;;;6045154;23;20014;-88
2021/05/21 10:46:52;;;;;;;0.38;0.38;;;37.20;35.70;;;;;;6131908;23;19904;-88
2021/05/21 10:49:26;;;;;;;0.35;0.30;;;36.90;35.00;;;;;;6159766;23;20037;-86
2021/05/21 10:52:01;;;;;;;0.30;0.30;;;36.30;34.00;;;;;;6161188;23;20078;-87
2021/05/21 10:54:36;;;;;;;0.45;0.40;;;35.30;33.50;;;;;;6188234;23;20016;-86
2021/05/21 10:57:24;;;;;;;0.40;0.40;;;34.30;34.30;;;;;;6161319;23;20071;-87
2021/05/21 10:59:55;;;;;;;0.50;0.40;;;33.50;34.90;;;;;;6160894;23;20008;-88
2021/05/21 11:02:52;;;;;;;0.60;0.32;;;32.80;35.10;;;;;;6159843;23;20017;-86
2021/05/21 11:05:22;;;;;;;1.98;0.35;;;32.20;35.40;;;;;;6186551;23;20327;-87
2021/05/21 11:07:57;;;;;;;0.50;0.50;;;31.80;35.60;;;;;;6159960;23;20454;-86
2021/05/21 11:10:32;;;;;;;0.40;0.40;;;31.50;35.80;;;;;;6159010;23;20005;-86
2021/05/21 11:13:01;;;;;;;1.20;0.50;;;31.20;36.10;;;;;;6159896;23;20386;-86
2021/05/21 11:15:52;;;;;;;0.30;0.30;;;30.90;36.10;;;;;;6158257;23;20017;-85
2021/05/21 11:18:21;;;;;;;0.38;0.38;;;30.90;36.10;;;;;;6158392;23;20040;-86
2021/05/21 11:21:08;;;;;;;0.52;0.43;;;31.00;36.40;;;;;;6158642;23;20324;-86
2021/05/21 11:23:37;;;;;;;0.63;0.30;;;31.50;36.00;;;;;;6158406;23;20092;-86
2021/05/21 11:28:47;;;;;;;1.75;0.40;;;31.90;36.10;;;;;;6183194;23;20024;-85
2021/05/21 11:31:17;;;;;;;2.38;0.73;;;31.70;35.90;;;;;;6158930;23;20092;-87
2021/05/21 11:33:45;;;;;;;0.65;0.40;;;31.30;35.90;;;;;;6156734;23;20016;-87
2021/05/21 11:36:11;;;;;;;1.40;0.50;;;30.90;36.00;;;;;;6156077;23;20024;-86
2021/05/21 11:38:37;;;;;;;0.57;0.40;;;30.60;36.50;;;;;;6154372;23;20016;-86
2021/05/21 11:41:05;;;;;;;0.80;0.30;;;30.50;36.60;;;;;;6156441;23;20510;-86
2021/05/21 11:43:31;;;;;;;1.42;0.35;;;30.40;36.00;;;;;;6156702;23;20431;-86
2021/05/21 11:45:58;;;;;;;2.38;0.52;;;30.00;36.10;;;;;;6203619;23;20020;-86
2021/05/21 11:48:35;;;;;;;1.05;0.40;;;29.60;36.20;;;;;;6183543;23;20439;-85
2021/05/21 11:51:09;;;;;;;0.57;0.40;;;29.20;36.80;;;;;;6205125;23;20109;-85
2021/05/21 11:54:05;;;;;;;0.50;0.50;;;29.00;37.10;;;;;;6158613;23;20020;-86
2021/05/21 11:56:33;;;;;;;3.30;0.45;;;29.30;37.00;;;;;;6154585;23;20027;-87
2021/05/21 11:59:09;;;;;;;0.32;0.32;;;29.90;37.80;;;;;;6156719;23;20469;-86
2021/05/21 12:01:37;;;;;;;0.50;0.47;;;30.90;37.90;;;;;;6184178;23;20028;-85
2021/05/21 12:04:04;;;;;;;0.30;0.30;;;32.00;37.70;;;;;;6184548;23;20055;-86
2021/05/21 12:06:31;;;;;;;0.50;0.50;;;32.80;36.80;;;;;;6158541;23;20012;-87
2021/05/21 12:08:57;;;;;;;0.65;0.40;;;33.20;36.30;;;;;;6159266;23;20016;-87
2021/05/21 12:11:27;;;;;;;0.47;0.35;;;33.60;36.20;;;;;;6160465;23;20016;-87
2021/05/21 12:14:08;;;;;;;0.40;0.40;;;33.70;35.50;;;;;;6160465;23;20088;-88
2021/05/21 12:16:35;;;;;;;0.30;0.30;;;33.70;35.40;;;;;;6159988;23;20012;-89
2021/05/21 12:19:06;;;;;;;0.90;0.60;;;33.80;35.70;;;;;;6161163;23;20335;-87
2021/05/21 12:21:34;;;;;;;2.33;0.60;;;34.00;35.60;;;;;;6160654;23;20001;-88
2021/05/21 12:24:01;;;;;;;0.30;0.30;;;33.80;35.50;;;;;;6159963;23;20059;-88
2021/05/21 12:26:29;;;;;;;1.17;0.40;;;33.40;35.30;;;;;;6160362;23;20027;-88
2021/05/21 12:29:00;;;;;;;0.63;0.35;;;32.60;35.40;;;;;;6187244;23;20055;-88
2021/05/21 12:31:30;;;;;;;0.82;0.50;;;31.70;35.80;;;;;;6162242;23;20064;-89
2021/05/21 12:33:57;;;;;;;0.40;0.40;;;31.40;36.80;;;;;;6161211;23;20005;-89
2021/05/21 12:36:29;;;;;;;3.22;1.02;;;31.40;36.70;;;;;;6160363;23;20048;-88
2021/05/21 12:38:56;;;;;;;3.10;1.50;;;31.20;36.50;;;;;;6161037;23;20089;-87
2021/05/21 12:41:33;;;;;;;1.58;1.10;;;30.90;36.70;;;;;;6189285;23;20051;-88
2021/05/21 12:44:14;;;;;;;3.70;0.82;;;31.00;36.90;;;;;;6178992;23;20001;-86
2021/05/21 12:46:45;;;;;;;0.68;0.50;;;30.90;36.70;;;;;;6186697;23;19993;-88
2021/05/21 12:49:13;;;;;;;0.50;0.50;;;30.40;36.40;;;;;;6214151;23;20004;-87
2021/05/21 12:51:38;;;;;;;0.85;0.40;;;29.80;36.90;;;;;;6187773;23;19993;-86
2021/05/21 12:54:20;;;;;;;0.40;0.40;;;29.60;37.40;;;;;;6167117;23;20017;-87